Time;durP1;ratioP1;P1;durP2;ratioP2;P2;SDS_P1;SDS_P2;PMS_P1;PMS_P2;Temp;Humidity;BMP_temperature;BMP_pressure;BME280_temperature;BME280_humidity;BME280_pressure;Samples;Min_cycle;Max_cycle;Signal;HPM_P1;HPM_P2
2022/08/27 00:02:23;;;;;;;12.70;4.00;;;;;;;15.34;92.24;101577.50;5038003;28;20041;-73
2022/08/27 00:04:49;;;;;;;12.80;3.83;;;;;;;15.29;92.29;101579.72;5035649;28;20096;-73
2022/08/27 00:07:15;;;;;;;10.05;3.45;;;;;;;15.25;92.60;101575.53;5040612;28;20115;-73
2022/08/27 00:09:40;;;;;;;13.95;4.18;;;;;;;15.20;92.73;101572.34;5049273;28;20523;-73
2022/08/27 00:12:07;;;;;;;15.07;4.13;;;;;;;15.14;92.20;101575.53;5047190;28;20052;-73
2022/08/27 00:14:33;;;;;;;10.55;3.70;;;;;;;15.09;92.39;101572.34;5048898;28;20145;-73
2022/08/27 00:16:58;;;;;;;15.05;4.38;;;;;;;15.03;92.35;101565.59;5046733;28;20032;-73
2022/08/27 00:19:24;;;;;;;12.07;4.18;;;;;;;15.00;92.89;101565.84;5042300;28;20097;-73
2022/08/27 00:21:49;;;;;;;9.55;3.63;;;;;;;14.96;92.91;101565.19;5035455;28;20029;-73
2022/08/27 00:24:14;;;;;;;13.52;4.45;;;;;;;14.93;92.85;101567.31;5045260;28;20457;-73
2022/08/27 00:26:40;;;;;;;9.40;3.70;;;;;;;14.89;93.00;101564.00;5048722;28;20290;-73
2022/08/27 00:29:07;;;;;;;13.45;4.28;;;;;;;14.83;92.76;101565.34;5048104;28;20040;-73
2022/08/27 00:31:33;;;;;;;14.43;4.47;;;;;;;14.78;93.06;101564.84;5041401;28;20500;-73
2022/08/27 00:33:58;;;;;;;15.50;4.10;;;;;;;14.74;93.13;101559.81;5037765;28;20044;-73
2022/08/27 00:36:24;;;;;;;17.42;4.82;;;;;;;14.73;93.52;101567.06;5037646;28;20033;-73
2022/08/27 00:38:49;;;;;;;14.05;3.72;;;;;;;14.68;93.53;101556.63;5043299;28;20029;-73
2022/08/27 00:41:17;;;;;;;15.32;4.18;;;;;;;14.66;93.86;101566.69;5046409;28;20033;-73
2022/08/27 00:43:47;;;;;;;10.82;3.38;;;;;;;14.66;94.10;101563.97;5032821;28;20029;-73
2022/08/27 00:46:20;;;;;;;12.18;4.07;;;;;;;14.65;93.64;101564.94;5048222;28;20098;-73
2022/08/27 00:48:47;;;;;;;9.63;3.83;;;;;;;14.63;94.11;101561.53;5049204;28;20501;-73
2022/08/27 00:51:13;;;;;;;16.58;4.90;;;;;;;14.64;94.08;101560.53;5041455;28;20028;-73
2022/08/27 00:53:39;;;;;;;12.23;4.53;;;;;;;14.65;93.87;101559.53;5038916;28;20083;-73
2022/08/27 00:56:14;;;;;;;15.15;4.75;;;;;;;14.68;93.67;101562.03;5046827;28;20032;-73
2022/08/27 00:58:44;;;;;;;14.30;4.97;;;;;;;14.67;93.57;101565.72;5046576;28;20034;-73
2022/08/27 01:01:10;;;;;;;;;;;;;;;14.74;92.17;101566.06;5037828;28;20350;-73
2022/08/27 01:03:36;;;;;;;11.98;4.13;;;;;;;14.62;93.35;101567.06;5041365;28;19917;-73
2022/08/27 01:06:08;;;;;;;17.05;5.63;;;;;;;14.56;93.81;101560.25;5046503;28;20047;-73
2022/08/27 01:08:36;;;;;;;16.02;4.85;;;;;;;14.51;93.64;101563.31;5037539;28;20473;-73
2022/08/27 01:11:03;;;;;;;18.35;5.82;;;;;;;14.46;93.75;101562.81;5047181;28;20043;-73
2022/08/27 01:13:31;;;;;;;18.08;5.30;;;;;;;14.40;93.99;101559.75;5049447;28;20048;-73
2022/08/27 01:15:58;;;;;;;19.70;5.45;;;;;;;14.34;93.83;101559.22;5034986;28;20025;-74
2022/08/27 01:18:26;;;;;;;15.05;5.18;;;;;;;14.30;94.10;101556.88;5046743;28;20417;-73
2022/08/27 01:21:19;;;;;;;15.38;5.38;;;;;;;14.30;93.79;101555.03;5039763;28;20044;-73
2022/08/27 01:24:07;;;;;;;12.93;4.30;;;;;;;14.26;94.03;101553.56;5031295;28;20132;-73
2022/08/27 01:26:32;;;;;;;16.02;5.03;;;;;;;14.18;94.15;101564.09;5031408;28;20144;-73
2022/08/27 01:28:58;;;;;;;17.33;5.38;;;;;;;14.13;94.52;101553.66;5046045;28;20548;-73
2022/08/27 01:31:23;;;;;;;19.75;5.65;;;;;;;14.10;94.78;101550.31;5046856;28;20491;-73
2022/08/27 01:33:59;;;;;;;15.77;4.90;;;;;;;14.09;94.45;101554.00;5043557;28;20052;-73
2022/08/27 01:36:24;;;;;;;17.70;5.07;;;;;;;14.07;94.66;101558.66;5043463;28;20492;-73
2022/08/27 01:38:50;;;;;;;18.98;5.43;;;;;;;14.05;94.92;101547.09;5046174;28;20021;-73
2022/08/27 01:41:17;;;;;;;15.77;5.40;;;;;;;14.04;94.94;101557.06;5036271;28;20034;-73
2022/08/27 01:43:42;;;;;;;17.75;5.35;;;;;;;14.02;95.27;101555.47;5047681;28;20534;-73
2022/08/27 01:46:08;;;;;;;15.30;4.85;;;;;;;14.01;94.75;101554.56;5037748;28;20123;-73
2022/08/27 01:48:33;;;;;;;15.95;5.80;;;;;;;14.01;95.11;101554.56;5049102;28;20433;-73
2022/08/27 01:50:59;;;;;;;16.13;5.28;;;;;;;13.99;95.14;101543.88;5040250;28;20391;-74
2022/08/27 01:53:25;;;;;;;16.27;5.72;;;;;;;13.98;94.62;101546.72;5049487;28;20411;-74
2022/08/27 01:55:56;;;;;;;17.23;5.20;;;;;;;13.95;94.41;101552.34;5045525;28;20091;-74
2022/08/27 01:58:25;;;;;;;19.27;5.13;;;;;;;13.93;94.70;101552.47;5038561;28;20103;-74
2022/08/27 02:00:53;;;;;;;13.77;5.10;;;;;;;13.92;94.59;101548.03;5043273;28;20404;-73
2022/08/27 02:03:18;;;;;;;16.80;5.65;;;;;;;13.89;94.57;101548.28;5045661;28;20074;-74
2022/08/27 02:05:47;;;;;;;11.80;5.28;;;;;;;13.84;94.60;101550.47;5042203;28;20318;-74
2022/08/27 02:08:15;;;;;;;18.00;5.93;;;;;;;13.84;94.99;101549.63;5043899;28;20086;-74
2022/08/27 02:10:42;;;;;;;15.95;5.50;;;;;;;13.80;94.74;101548.97;5041150;28;20021;-74
2022/08/27 02:13:08;;;;;;;14.82;5.45;;;;;;;13.79;94.92;101541.84;5045667;28;20049;-73
2022/08/27 02:15:35;;;;;;;14.70;5.28;;;;;;;13.77;94.41;101538.41;5041520;28;20055;-73
2022/08/27 02:18:02;;;;;;;14.48;5.00;;;;;;;13.76;94.60;101547.47;5041168;28;20048;-74
2022/08/27 02:20:28;;;;;;;15.20;5.72;;;;;;;13.74;94.72;101544.91;5037932;28;20047;-74
2022/08/27 02:22:54;;;;;;;18.42;6.25;;;;;;;13.75;94.79;101534.97;5052134;28;20500;-74
2022/08/27 02:25:20;;;;;;;18.88;7.00;;;;;;;13.72;94.76;101541.47;5047074;28;20052;-74
2022/08/27 02:27:47;;;;;;;15.73;6.10;;;;;;;13.70;95.03;101527.19;5051384;28;20028;-74
2022/08/27 02:30:16;;;;;;;15.15;5.80;;;;;;;13.67;95.07;101532.84;5046935;28;20108;-74
2022/08/27 02:32:41;;;;;;;16.00;5.18;;;;;;;13.65;94.62;101537.50;5051593;28;20032;-74
2022/08/27 02:35:08;;;;;;;17.63;6.40;;;;;;;13.64;95.25;101524.97;5050654;28;20061;-74
2022/08/27 02:37:33;;;;;;;17.58;6.93;;;;;;;13.62;95.35;101530.47;5051676;28;20412;-74
2022/08/27 02:40:00;;;;;;;23.63;6.97;;;;;;;13.59;95.30;101525.31;5038598;28;20036;-74
2022/08/27 02:42:26;;;;;;;19.25;7.07;;;;;;;13.56;95.01;101525.56;5043597;28;20060;-74
2022/08/27 02:44:53;;;;;;;17.92;6.85;;;;;;;13.56;95.35;101525.56;5042731;28;20478;-74
2022/08/27 02:47:19;;;;;;;16.75;6.13;;;;;;;13.56;95.74;101530.94;5036090;28;20400;-74
2022/08/27 02:49:48;;;;;;;20.73;7.63;;;;;;;13.57;95.99;101523.69;5039187;28;20041;-74
2022/08/27 02:52:13;;;;;;;19.05;6.97;;;;;;;13.59;96.00;101525.31;5052668;28;20155;-74
2022/08/27 02:54:39;;;;;;;18.88;6.82;;;;;;;13.61;96.26;101528.75;5049888;28;20029;-74
2022/08/27 02:57:04;;;;;;;19.35;6.95;;;;;;;13.60;96.50;101527.06;5053247;28;20120;-74
2022/08/27 02:59:30;;;;;;;21.08;6.30;;;;;;;13.61;96.71;101526.06;5048072;28;20034;-74
2022/08/27 03:01:55;;;;;;;19.08;6.82;;;;;;;13.64;96.67;101522.25;5046954;28;20029;-74
2022/08/27 03:04:21;;;;;;;19.80;7.18;;;;;;;13.68;97.14;101525.63;5048026;28;20056;-74
2022/08/27 03:06:47;;;;;;;21.23;7.53;;;;;;;13.71;96.86;101533.47;5047093;28;20025;-74
2022/08/27 03:09:13;;;;;;;17.70;7.75;;;;;;;13.75;97.32;101529.56;5051475;28;20401;-74
2022/08/27 03:11:39;;;;;;;21.10;7.50;;;;;;;13.79;97.87;101531.03;5039608;28;20425;-74
2022/08/27 03:14:05;;;;;;;19.17;7.28;;;;;;;13.80;97.29;101528.22;5037695;28;20075;-74
2022/08/27 03:16:34;;;;;;;21.10;7.03;;;;;;;13.84;97.85;101528.88;5039601;28;20442;-74
2022/08/27 03:18:59;;;;;;;18.73;7.20;;;;;;;13.86;98.26;101531.44;5045102;28;20049;-73
2022/08/27 03:21:25;;;;;;;22.60;7.13;;;;;;;13.88;98.43;101535.75;5039242;28;20039;-73
2022/08/27 03:23:51;;;;;;;20.48;6.63;;;;;;;13.92;98.66;101534.53;5044547;28;20028;-73
2022/08/27 03:26:18;;;;;;;19.58;7.30;;;;;;;13.95;98.58;101528.91;5048389;28;20445;-73
2022/08/27 03:28:44;;;;;;;18.92;6.68;;;;;;;14.00;97.42;101539.38;5047906;28;20024;-74
2022/08/27 03:31:25;;;;;;;19.70;7.93;;;;;;;14.04;97.60;101539.97;5042405;28;20037;-74
2022/08/27 03:33:52;;;;;;;18.95;6.63;;;;;;;14.06;98.16;101533.47;5049521;28;20542;-74
2022/08/27 03:36:18;;;;;;;18.35;6.97;;;;;;;14.08;97.44;101534.22;5049885;28;20017;-74
2022/08/27 03:38:43;;;;;;;19.20;6.85;;;;;;;14.09;97.38;101529.69;5047405;28;20485;-74
2022/08/27 03:41:08;;;;;;;17.63;6.78;;;;;;;14.09;96.96;101529.69;5044732;28;20461;-74
2022/08/27 03:43:34;;;;;;;17.08;6.45;;;;;;;14.06;96.84;101533.47;5046100;28;20020;-74
2022/08/27 03:46:00;;;;;;;22.25;7.05;;;;;;;14.06;96.73;101521.81;5046745;28;20699;-74
2022/08/27 03:48:27;;;;;;;17.73;6.57;;;;;;;14.06;96.39;101543.44;5047750;28;20134;-74
2022/08/27 03:50:52;;;;;;;20.42;6.57;;;;;;;14.02;96.16;101541.94;5035061;28;20108;-74
2022/08/27 03:53:21;;;;;;;16.48;6.30;;;;;;;13.97;95.96;101539.59;5041181;28;20179;-74
2022/08/27 03:55:46;;;;;;;18.73;6.72;;;;;;;13.91;96.33;101540.94;5047923;28;20104;-74
2022/08/27 03:58:12;;;;;;;18.70;6.97;;;;;;;13.85;96.65;101536.00;5038009;28;20182;-74
2022/08/27 04:00:39;;;;;;;18.60;6.95;;;;;;;13.81;96.82;101534.50;5049258;28;20573;-74
2022/08/27 04:03:06;;;;;;;20.58;6.68;;;;;;;13.83;97.13;101537.94;5038725;28;20366;-74
2022/08/27 04:05:33;;;;;;;19.98;7.00;;;;;;;13.80;97.15;101530.91;5050428;28;20036;-74
2022/08/27 04:07:58;;;;;;;22.70;6.60;;;;;;;13.79;97.39;101531.91;5045644;28;20475;-74
2022/08/27 04:10:24;;;;;;;18.70;6.40;;;;;;;13.79;97.70;101542.72;5042678;28;20033;-74
2022/08/27 04:12:49;;;;;;;18.77;6.70;;;;;;;13.79;97.65;101531.03;5039831;28;20033;-74
2022/08/27 04:15:14;;;;;;;17.95;6.45;;;;;;;13.80;97.49;101530.06;5040473;28;20025;-74
2022/08/27 04:17:41;;;;;;;18.27;6.45;;;;;;;13.79;97.51;101523.81;5039409;28;20075;-74
2022/08/27 04:20:08;;;;;;;17.45;6.28;;;;;;;13.78;97.75;101530.19;5047006;28;20040;-74
2022/08/27 04:22:34;;;;;;;21.52;6.90;;;;;;;13.77;97.92;101528.47;5046839;28;20033;-74
2022/08/27 04:24:59;;;;;;;18.55;6.93;;;;;;;13.75;97.16;101526.88;5046366;28;20111;-74
2022/08/27 04:27:25;;;;;;;18.50;6.30;;;;;;;13.73;97.34;101526.97;5036058;28;20035;-74
2022/08/27 04:29:57;;;;;;;20.90;7.50;;;;;;;13.72;97.11;101527.06;5042529;28;20052;-73
2022/08/27 04:32:27;;;;;;;17.27;6.72;;;;;;;13.71;97.39;101528.06;5046720;28;20459;-74
2022/08/27 04:34:53;;;;;;;;;;;;;;;13.80;96.09;101530.06;5046484;28;20045;-74
2022/08/27 04:37:19;;;;;;;16.98;6.28;;;;;;;13.69;96.91;101530.91;5048252;28;20376;-74
2022/08/27 04:39:44;;;;;;;18.75;7.45;;;;;;;13.67;97.34;101527.44;5045965;28;20032;-73
2022/08/27 04:42:09;;;;;;;18.92;6.38;;;;;;;13.63;97.16;101532.22;5045410;28;20056;-74
2022/08/27 04:44:35;;;;;;;21.95;7.47;;;;;;;13.63;97.22;101532.22;5041908;28;20112;-74
2022/08/27 04:47:03;;;;;;;18.65;7.72;;;;;;;13.59;97.38;101532.56;5046484;28;20162;-74
2022/08/27 04:49:29;;;;;;;21.00;7.93;;;;;;;13.57;97.55;101537.22;5046187;28;20032;-74
2022/08/27 04:51:55;;;;;;;19.92;7.63;;;;;;;13.54;97.75;101538.28;5048552;28;20048;-74
2022/08/27 04:54:21;;;;;;;19.98;7.25;;;;;;;13.53;97.85;101541.09;5049847;28;20040;-74
2022/08/27 04:56:46;;;;;;;16.10;6.45;;;;;;;13.52;98.09;101539.41;5037983;28;20025;-74
2022/08/27 04:59:12;;;;;;;19.73;6.63;;;;;;;13.51;98.22;101540.38;5045371;28;20060;-74
2022/08/27 05:01:39;;;;;;;21.00;7.75;;;;;;;13.51;98.70;101546.63;5038618;28;20033;-73
2022/08/27 05:04:04;;;;;;;21.40;7.80;;;;;;;13.53;99.50;101542.00;5043062;28;20025;-73
2022/08/27 05:06:30;;;;;;;20.33;7.07;;;;;;;13.57;99.87;101548.00;5044720;28;20028;-74
2022/08/27 05:08:57;;;;;;;20.90;7.55;;;;;;;13.58;100.00;101549.75;5045548;28;20437;-73
2022/08/27 05:11:26;;;;;;;17.30;6.70;;;;;;;13.63;100.00;101552.94;5044844;28;20032;-73
2022/08/27 05:13:51;;;;;;;19.75;8.00;;;;;;;13.66;100.00;101546.47;5043027;28;20075;-73
2022/08/27 05:16:19;;;;;;;24.02;7.80;;;;;;;13.71;100.00;101547.84;5046511;28;20065;-73
2022/08/27 05:18:46;;;;;;;25.27;8.02;;;;;;;13.74;100.00;101546.75;5046387;28;20028;-73
2022/08/27 05:21:24;;;;;;;24.38;8.57;;;;;;;13.78;100.00;101542.84;5038635;28;20471;-73
2022/08/27 05:23:51;;;;;;;20.50;7.30;;;;;;;13.85;100.00;101544.09;5034918;28;20025;-74
2022/08/27 05:26:17;;;;;;;24.45;9.45;;;;;;;13.91;100.00;101546.34;5046274;28;20441;-74
2022/08/27 05:28:43;;;;;;;21.65;8.70;;;;;;;13.96;99.57;101548.69;5039382;28;20082;-74
2022/08/27 05:31:10;;;;;;;18.60;8.07;;;;;;;14.02;100.00;101550.06;5048296;28;20044;-74
2022/08/27 05:33:39;;;;;;;23.33;9.68;;;;;;;14.06;100.00;101549.69;5043197;28;20055;-73
2022/08/27 05:36:06;;;;;;;21.73;8.88;;;;;;;14.12;100.00;101553.78;5046953;28;20033;-73
2022/08/27 05:38:32;;;;;;;25.30;9.38;;;;;;;14.17;100.00;101548.84;5044926;28;20029;-74
2022/08/27 05:41:06;;;;;;;20.58;8.20;;;;;;;14.22;100.00;101552.06;5044462;28;20025;-74
2022/08/27 05:43:31;;;;;;;22.42;8.55;;;;;;;14.26;100.00;101553.56;5046288;28;20047;-74
2022/08/27 05:45:57;;;;;;;21.88;8.85;;;;;;;14.34;99.93;101561.06;5046941;28;20100;-74
2022/08/27 05:48:22;;;;;;;22.42;9.00;;;;;;;14.38;99.31;101553.56;5041778;28;20441;-74
2022/08/27 05:50:48;;;;;;;22.05;8.63;;;;;;;14.44;99.00;101553.13;5039551;28;20154;-74
2022/08/27 05:53:13;;;;;;;20.13;8.35;;;;;;;14.50;99.08;101556.19;5043948;28;20476;-74
2022/08/27 05:55:43;;;;;;;19.83;7.80;;;;;;;14.54;99.19;101556.81;5050634;28;20390;-73
2022/08/27 06:01:03;;;;;;;21.50;8.13;;;;;;;14.58;97.93;101555.56;5047192;28;20124;-73
2022/08/27 06:01:05;;;;;;;22.17;8.77;;;;;;;14.62;97.81;101556.22;5044846;28;20040;-73
2022/08/27 06:03:33;;;;;;;18.15;7.60;;;;;;;14.66;98.01;101552.31;5048707;28;20447;-73
2022/08/27 06:06:00;;;;;;;21.85;9.02;;;;;;;14.71;97.82;101565.47;5050782;28;20029;-73
2022/08/27 06:08:25;;;;;;;20.80;8.57;;;;;;;14.75;98.30;101562.38;5052608;28;20371;-73
2022/08/27 06:10:51;;;;;;;23.30;8.65;;;;;;;14.78;98.09;101561.28;5050920;28;20028;-73
2022/08/27 06:13:16;;;;;;;22.33;8.75;;;;;;;14.83;98.23;101567.19;5049578;28;20040;-73
2022/08/27 06:15:41;;;;;;;21.20;9.20;;;;;;;14.85;97.46;101574.19;5047151;28;20028;-73
2022/08/27 06:18:07;;;;;;;20.65;8.45;;;;;;;14.88;97.51;101569.53;5045670;28;20045;-74
2022/08/27 06:20:32;;;;;;;22.50;9.63;;;;;;;14.92;97.01;101574.59;5046600;28;20033;-73
2022/08/27 06:22:57;;;;;;;19.98;8.85;;;;;;;14.96;97.69;101580.59;5048376;28;20025;-73
2022/08/27 06:25:22;;;;;;;24.08;9.80;;;;;;;14.99;96.95;101564.09;5044348;28;20056;-73
2022/08/27 06:27:48;;;;;;;24.88;9.77;;;;;;;15.02;97.26;101564.72;5050413;28;20493;-73
2022/08/27 06:30:13;;;;;;;23.17;9.55;;;;;;;15.06;96.85;101567.19;5050339;28;20028;-73
2022/08/27 06:32:39;;;;;;;20.88;9.07;;;;;;;15.11;97.79;101570.38;5043861;28;20025;-73
2022/08/27 06:35:04;;;;;;;22.55;10.00;;;;;;;15.18;97.51;101571.59;5043211;28;20037;-73
2022/08/27 06:37:30;;;;;;;23.00;9.65;;;;;;;15.24;97.53;101571.09;5050504;28;20074;-73
2022/08/27 06:39:55;;;;;;;24.30;8.48;;;;;;;15.29;96.98;101571.59;5051739;28;20044;-73
2022/08/27 06:42:20;;;;;;;22.80;9.23;;;;;;;15.33;97.35;101573.06;5051753;28;20333;-73
2022/08/27 06:44:45;;;;;;;23.60;9.35;;;;;;;15.39;97.50;101571.69;5046260;28;20028;-73
2022/08/27 06:47:11;;;;;;;24.13;8.98;;;;;;;15.44;98.09;101569.47;5049419;28;20783;-73
2022/08/27 06:49:38;;;;;;;20.02;8.10;;;;;;;15.48;96.83;101570.09;5045838;28;20021;-73
2022/08/27 06:52:04;;;;;;;20.40;8.23;;;;;;;15.52;97.52;101572.41;5050791;28;20339;-73
2022/08/27 06:54:29;;;;;;;22.67;9.00;;;;;;;15.55;96.00;101566.72;5034818;28;20021;-73
2022/08/27 06:56:57;;;;;;;22.60;8.80;;;;;;;15.60;96.34;101574.47;5046813;28;20025;-73
2022/08/27 06:59:22;;;;;;;23.63;9.20;;;;;;;15.65;95.76;101566.84;5039931;28;20029;-73
2022/08/27 07:01:49;;;;;;;20.05;8.32;;;;;;;15.70;95.24;101575.41;5054332;28;20094;-73
2022/08/27 07:04:21;;;;;;;20.15;8.65;;;;;;;15.74;95.17;101567.91;5049250;28;20037;-73
2022/08/27 07:06:47;;;;;;;20.13;8.32;;;;;;;15.80;96.37;101570.13;5033304;28;20035;-73
2022/08/27 07:09:13;;;;;;;25.23;9.57;;;;;;;15.88;96.46;101573.03;5044039;28;20324;-73
2022/08/27 07:11:39;;;;;;;21.55;9.65;;;;;;;15.93;94.45;101574.50;5041564;28;20039;-73
2022/08/27 07:14:05;;;;;;;24.10;9.77;;;;;;;15.97;94.10;101570.56;5033681;28;20033;-73
2022/08/27 07:16:31;;;;;;;20.80;8.80;;;;;;;16.01;94.61;101572.00;5036235;28;20025;-73
2022/08/27 07:18:58;;;;;;;22.00;8.40;;;;;;;16.06;95.16;101584.19;5047293;28;20570;-73
2022/08/27 07:21:24;;;;;;;24.02;8.25;;;;;;;16.10;93.77;101582.06;5044901;28;20033;-73
2022/08/27 07:23:52;;;;;;;19.33;7.88;;;;;;;16.18;93.66;101578.69;5044082;28;20033;-73
2022/08/27 07:26:19;;;;;;;19.13;8.43;;;;;;;16.24;94.39;101579.03;5042588;28;20037;-73
2022/08/27 07:28:46;;;;;;;20.38;8.43;;;;;;;16.31;93.62;101579.38;5039667;28;20052;-73
2022/08/27 07:31:15;;;;;;;22.05;8.32;;;;;;;16.36;93.36;101576.28;5046363;28;20033;-73
2022/08/27 07:33:41;;;;;;;17.98;7.25;;;;;;;16.40;92.81;101578.59;5050841;28;20068;-73
2022/08/27 07:36:07;;;;;;;19.33;7.50;;;;;;;16.45;92.24;101577.31;5051323;28;20025;-73
2022/08/27 07:38:33;;;;;;;21.30;7.22;;;;;;;16.47;90.78;101581.63;5052917;28;20086;-73
2022/08/27 07:40:59;;;;;;;21.83;7.65;;;;;;;16.51;91.74;101583.06;5052566;28;20021;-73
2022/08/27 07:46:08;;;;;;;18.08;7.18;;;;;;;16.59;90.88;101585.97;5052629;28;20452;-73
2022/08/27 07:48:34;;;;;;;19.15;6.78;;;;;;;16.64;90.13;101587.44;5036739;28;20068;-73
2022/08/27 07:51:03;;;;;;;19.05;6.55;;;;;;;16.69;88.69;101585.16;5032556;28;20026;-74
2022/08/27 07:53:30;;;;;;;19.38;6.20;;;;;;;16.72;88.61;101588.47;5032470;28;20036;-74
2022/08/27 07:56:04;;;;;;;18.85;5.82;;;;;;;16.79;88.37;101588.78;5032044;28;20040;-74
2022/08/27 07:58:30;;;;;;;19.77;6.50;;;;;;;16.84;86.08;101596.53;5032856;28;20033;-74
2022/08/27 08:00:55;;;;;;;17.98;5.95;;;;;;;16.89;85.77;101588.88;5037526;28;20262;-74
2022/08/27 08:03:21;;;;;;;18.88;6.35;;;;;;;16.94;85.31;101598.34;5032501;28;20483;-74
2022/08/27 08:05:47;;;;;;;16.95;6.00;;;;;;;17.03;89.35;101590.34;5032264;28;20029;-74
2022/08/27 08:08:14;;;;;;;17.83;6.07;;;;;;;17.06;86.57;101599.09;5032302;28;20044;-74
2022/08/27 08:10:42;;;;;;;17.52;6.38;;;;;;;17.10;86.04;101597.84;5032191;28;20032;-74
2022/08/27 08:13:07;;;;;;;18.63;5.25;;;;;;;17.14;83.33;101597.56;5030669;28;20087;-74
2022/08/27 08:15:33;;;;;;;16.80;5.90;;;;;;;17.19;85.11;101600.72;5031984;28;20446;-74
2022/08/27 08:17:59;;;;;;;16.75;5.22;;;;;;;17.20;83.58;101592.41;5029928;28;20075;-74
2022/08/27 08:20:24;;;;;;;18.65;5.80;;;;;;;17.26;85.76;101589.19;5047229;28;20025;-74
2022/08/27 08:22:49;;;;;;;13.88;4.95;;;;;;;17.29;82.71;101596.16;5031953;28;20013;-74
2022/08/27 08:25:15;;;;;;;16.27;5.43;;;;;;;17.35;82.73;101594.75;5047093;28;20099;-74
2022/08/27 08:27:41;;;;;;;17.58;5.82;;;;;;;17.40;82.74;101593.34;5046952;28;20055;-74
2022/08/27 08:30:09;;;;;;;16.10;5.38;;;;;;;17.47;82.33;101602.66;5031926;28;20404;-74
2022/08/27 08:32:34;;;;;;;16.38;5.60;;;;;;;17.52;79.88;101606.81;5048266;28;20028;-74
2022/08/27 08:34:59;;;;;;;15.65;5.47;;;;;;;17.55;81.33;101601.97;5051422;28;20109;-74
2022/08/27 08:37:26;;;;;;;18.38;5.97;;;;;;;17.61;80.66;101600.53;5051738;28;20159;-74
2022/08/27 08:39:53;;;;;;;18.42;5.75;;;;;;;17.68;82.30;101612.56;5050137;28;20401;-74
2022/08/27 08:42:28;;;;;;;18.23;5.15;;;;;;;17.74;82.76;101603.00;5035097;28;20033;-74
2022/08/27 08:44:59;;;;;;;18.35;6.10;;;;;;;17.81;79.48;101607.72;5031572;28;20457;-73
2022/08/27 08:47:32;;;;;;;19.55;6.68;;;;;;;17.90;78.66;101602.47;5046833;28;20025;-73
2022/08/27 08:50:12;;;;;;;14.65;5.57;;;;;;;17.98;79.36;101599.91;5046720;28;20025;-73
2022/08/27 08:52:47;;;;;;;17.38;5.82;;;;;;;18.07;79.13;101603.63;5031362;28;20048;-74
2022/08/27 08:55:31;;;;;;;15.60;5.82;;;;;;;18.14;79.17;101600.19;5046550;28;20025;-74
2022/08/27 08:58:20;;;;;;;14.55;5.07;;;;;;;18.25;78.13;101604.63;5044546;28;20052;-74
2022/08/27 09:00:52;;;;;;;15.48;5.25;;;;;;;18.33;76.80;101602.03;5050963;28;20033;-74
2022/08/27 09:03:17;;;;;;;17.33;5.57;;;;;;;18.39;76.42;101606.06;5033426;28;20037;-74
2022/08/27 09:05:48;;;;;;;15.48;5.38;;;;;;;18.50;77.73;101605.88;5031246;28;20503;-74
2022/08/27 09:08:21;;;;;;;17.45;5.60;;;;;;;18.55;76.62;101613.63;5033860;28;20035;-74
2022/08/27 09:11:05;;;;;;;12.35;4.13;;;;;;;18.58;74.52;101605.16;5048601;28;20017;-74
2022/08/27 09:13:37;;;;;;;11.15;3.70;;;;;;;18.60;76.30;101614.03;5035842;28;20029;-74
2022/08/27 09:16:03;;;;;;;15.38;4.43;;;;;;;18.59;75.38;101622.34;5047726;28;20104;-73
2022/08/27 09:18:29;;;;;;;10.93;3.47;;;;;;;18.61;75.83;101617.59;5049021;28;20389;-73
2022/08/27 09:21:21;;;;;;;12.15;3.63;;;;;;;18.63;75.01;101618.31;5050933;28;20036;-74
2022/08/27 09:24:01;;;;;;;9.68;3.40;;;;;;;18.68;72.74;101616.00;5051784;28;20492;-74
2022/08/27 09:26:32;;;;;;;12.48;3.60;;;;;;;18.75;73.76;101619.00;5050197;28;20488;-74
2022/08/27 09:29:15;;;;;;;9.00;3.33;;;;;;;18.82;70.21;101607.38;5050020;28;20056;-74
2022/08/27 09:31:45;;;;;;;9.90;3.17;;;;;;;18.91;70.80;101613.81;5045428;28;20026;-74
2022/08/27 09:34:12;;;;;;;10.13;2.95;;;;;;;18.98;70.71;101606.78;5028248;28;20053;-73
2022/08/27 09:36:58;;;;;;;12.70;3.85;;;;;;;19.04;72.77;101610.78;5030438;28;20036;-73
2022/08/27 09:39:32;;;;;;;12.73;3.35;;;;;;;19.04;69.84;101608.06;5030947;28;20025;-73
2022/08/27 09:41:57;;;;;;;7.32;3.00;;;;;;;19.00;69.51;101615.66;5030819;28;20437;-73
2022/08/27 09:44:23;;;;;;;11.20;3.78;;;;;;;18.94;67.70;101615.41;5046051;28;20075;-73
2022/08/27 09:47:01;;;;;;;9.38;3.45;;;;;;;18.97;70.69;101621.41;5044104;28;20437;-73
2022/08/27 09:49:26;;;;;;;8.88;3.05;;;;;;;18.98;68.32;101620.41;5050683;28;20594;-73
2022/08/27 09:51:53;;;;;;;10.60;3.40;;;;;;;19.03;67.63;101612.66;5046658;28;20056;-73
2022/08/27 09:54:39;;;;;;;11.10;3.30;;;;;;;19.13;69.68;101611.75;5029356;28;20124;-73
2022/08/27 09:57:06;;;;;;;14.85;4.07;;;;;;;19.16;67.04;101620.47;5030547;28;20399;-73
2022/08/27 09:59:53;;;;;;;11.50;3.35;;;;;;;19.24;68.77;101625.19;5046108;28;20071;-73
2022/08/27 10:02:24;;;;;;;7.95;2.90;;;;;;;19.33;68.00;101623.41;5038775;28;20091;-73
2022/08/27 10:04:57;;;;;;;14.13;3.72;;;;;;;19.41;67.92;101626.22;5029187;28;20170;-73
2022/08/27 10:07:52;;;;;;;11.45;3.83;;;;;;;19.50;69.24;101617.16;5030651;28;20385;-73
2022/08/27 10:10:20;;;;;;;6.93;3.15;;;;;;;19.59;66.50;101614.50;5037216;28;20025;-73
2022/08/27 10:12:54;;;;;;;12.07;3.47;;;;;;;19.68;65.09;101619.91;5048911;28;20037;-74
2022/08/27 10:15:22;;;;;;;11.07;3.65;;;;;;;19.67;64.42;101615.47;5050262;28;20584;-74
2022/08/27 10:17:59;;;;;;;13.52;3.78;;;;;;;19.63;63.91;101610.47;5048926;28;20075;-74
2022/08/27 10:20:39;;;;;;;9.88;3.33;;;;;;;19.69;68.03;101609.84;5048966;28;20029;-74
2022/08/27 10:23:24;;;;;;;11.13;3.30;;;;;;;19.69;69.28;101615.31;5050459;28;20491;-74
2022/08/27 10:26:01;;;;;;;12.45;3.50;;;;;;;19.66;67.69;101605.56;5048160;28;20029;-74
2022/08/27 10:28:37;;;;;;;10.82;3.42;;;;;;;19.65;65.82;101609.31;5028987;28;20022;-74
2022/08/27 10:31:39;;;;;;;12.57;3.55;;;;;;;19.65;66.87;101602.97;5038143;28;20021;-74
2022/08/27 10:34:25;;;;;;;12.85;4.15;;;;;;;19.66;67.48;101599.25;5030011;28;20055;-74
2022/08/27 10:36:59;;;;;;;11.52;3.60;;;;;;;19.73;66.41;101594.91;5031101;28;20025;-74
2022/08/27 10:39:27;;;;;;;12.65;3.85;;;;;;;19.74;65.90;101594.75;5050527;28;20025;-74
2022/08/27 10:41:58;;;;;;;12.30;4.05;;;;;;;19.76;65.16;101597.31;5051409;28;20025;-74
2022/08/27 10:45:07;;;;;;;8.82;3.33;;;;;;;19.78;66.89;101597.16;5053811;28;20435;-74
2022/08/27 10:47:32;;;;;;;;;;;;;;;19.84;69.14;101602.00;5052891;28;20097;-74
2022/08/27 10:50:20;;;;;;;8.87;3.30;;;;;;;19.84;68.09;101585.66;5052067;28;19915;-74
2022/08/27 10:52:51;;;;;;;12.10;3.72;;;;;;;19.81;66.00;101603.22;5053757;28;20290;-74
2022/08/27 10:55:26;;;;;;;13.63;3.80;;;;;;;19.78;65.70;101588.97;5045045;28;20022;-74
2022/08/27 10:58:26;;;;;;;9.90;3.25;;;;;;;19.77;67.98;101595.47;5033492;28;20056;-74
2022/08/27 11:01:16;;;;;;;13.23;3.97;;;;;;;19.73;67.95;101601.19;5037994;28;20112;-74
2022/08/27 11:03:53;;;;;;;9.95;3.47;;;;;;;19.72;68.02;101607.69;5033320;28;20431;-74
2022/08/27 11:06:40;;;;;;;13.27;3.60;;;;;;;19.66;66.71;101600.09;5033509;28;20021;-74
2022/08/27 11:09:22;;;;;;;9.43;3.50;;;;;;;19.66;67.40;101599.25;5043047;28;20416;-74
2022/08/27 11:11:55;;;;;;;9.75;3.72;;;;;;;19.64;65.40;101601.28;5043748;28;20132;-74
2022/08/27 11:14:36;;;;;;;11.43;3.50;;;;;;;19.66;67.37;101599.25;5032117;28;20028;-74
2022/08/27 11:17:17;;;;;;;8.98;3.03;;;;;;;19.70;67.51;101597.94;5033190;28;20442;-74
2022/08/27 11:20:03;;;;;;;9.98;3.25;;;;;;;19.76;68.72;101591.84;5033108;28;20119;-74
2022/08/27 11:22:34;;;;;;;12.15;3.42;;;;;;;19.81;68.03;101592.28;5033027;28;20034;-73
2022/08/27 11:25:11;;;;;;;8.93;2.88;;;;;;;19.88;68.36;101589.78;5033108;28;20507;-73
2022/08/27 11:27:39;;;;;;;9.45;3.30;;;;;;;19.90;66.22;101594.09;5032993;28;20358;-73
2022/08/27 11:30:34;;;;;;;8.82;2.97;;;;;;;19.95;66.54;101590.03;5031272;28;20036;-73
2022/08/27 11:33:18;;;;;;;9.55;3.33;;;;;;;19.98;67.18;101581.53;5048134;28;20050;-74